Time;durP1;ratioP1;P1;durP2;ratioP2;P2;SDS_P1;SDS_P2;PMS_P1;PMS_P2;Temp;Humidity;BMP_temperature;BMP_pressure;BME280_temperature;BME280_humidity;BME280_pressure;Samples;Min_cycle;Max_cycle;Signal;HPM_P1;HPM_P2
2023/03/14 00:01:48;;;;;;;;;;;;;;;-140.72;0.00;52940.78;5075537;28;19917;-71
2023/03/14 00:04:14;;;;;;;;;;;;;;;-140.72;0.00;52938.75;5067863;28;19924;-71
2023/03/14 00:06:39;;;;;;;;;;;;;;;-140.72;0.00;52942.81;5066585;28;19920;-71
2023/03/14 00:09:05;;;;;;;;;;;;;;;-140.72;0.00;52946.88;5065812;28;19916;-71
2023/03/14 00:11:30;;;;;;;;;;;;;;;-140.72;0.00;52922.53;5071179;28;19923;-71
2023/03/14 00:13:56;;;;;;;;;;;;;;;-140.72;0.00;52955.00;5060294;28;20016;-70
2023/03/14 00:16:21;;;;;;;;;;;;;;;-140.72;0.00;52942.81;5072806;28;19917;-70
2023/03/14 00:18:46;;;;;;;;;;;;;;;-140.72;0.00;52930.66;5064594;28;19924;-71
2023/03/14 00:21:12;;;;;;;;;;;;;;;-140.72;0.00;52940.78;5070865;28;19916;-71
2023/03/14 00:23:39;;;;;;;;;;;;;;;-140.72;0.00;52969.19;5074532;28;19927;-71
2023/03/14 00:26:07;;;;;;;;;;;;;;;-140.72;0.00;52934.69;5072367;28;20331;-71
2023/03/14 00:28:33;;;;;;;;;;;;;;;-140.72;0.00;52983.41;5079020;28;19916;-71
2023/03/14 00:30:58;;;;;;;;;;;;;;;-140.72;0.00;52971.22;5074650;28;19939;-71
2023/03/14 00:33:24;;;;;;;;;;;;;;;-140.72;0.00;53007.75;5073969;28;20355;-71
2023/03/14 00:35:53;;;;;;;;;;;;;;;-140.72;0.00;52967.16;5069640;28;20007;-71
2023/03/14 00:38:18;;;;;;;;;;;;;;;-140.72;0.00;52959.06;5075848;28;19924;-71
2023/03/14 00:40:44;;;;;;;;;;;;;;;-140.72;0.00;52997.63;5071623;28;19916;-71
2023/03/14 00:43:09;;;;;;;;;;;;;;;-140.72;0.00;52987.47;5069613;28;19928;-71
2023/03/14 00:45:34;;;;;;;;;;;;;;;-140.72;0.00;52942.81;5072096;28;19916;-71
2023/03/14 00:48:00;;;;;;;;;;;;;;;-140.72;0.00;52999.66;5065628;28;19920;-71
2023/03/14 00:50:25;;;;;;;;;;;;;;;-140.72;0.00;52999.66;5063095;28;19942;-71
2023/03/14 00:52:50;;;;;;;;;;;;;;;-140.72;0.00;53013.84;5065516;28;19921;-72
2023/03/14 00:55:15;;;;;;;;;;;;;;;-140.72;0.00;52987.47;5097234;28;19921;-71
2023/03/14 00:57:41;;;;;;;;;;;;;;;-140.72;0.00;52991.53;5077426;28;19920;-72
2023/03/14 01:00:08;;;;;;;;;;;;;;;-140.72;0.00;52985.44;5100428;28;20375;-71
2023/03/14 01:02:33;;;;;;;;;;;;;;;-140.72;0.00;52944.84;5063306;28;20374;-71
2023/03/14 01:04:58;;;;;;;;;;;;;;;-140.72;0.00;52999.66;5073702;28;20013;-72
2023/03/14 01:07:24;;;;;;;;;;;;;;;-140.72;0.00;52975.28;5071634;28;19964;-71
2023/03/14 01:09:51;;;;;;;;;;;;;;;-140.72;0.00;52946.88;5072790;28;19923;-72
2023/03/14 01:12:16;;;;;;;;;;;;;;;-140.72;0.00;52985.44;5054757;28;20548;-72
2023/03/14 01:14:41;;;;;;;;;;;;;;;-140.72;0.00;52930.66;5068278;28;20021;-72
2023/03/14 01:17:06;;;;;;;;;;;;;;;-140.72;0.00;52965.16;5071768;28;19969;-72
2023/03/14 01:19:32;;;;;;;;;;;;;;;-140.72;0.00;53001.66;5073407;28;19927;-72
2023/03/14 01:21:57;;;;;;;;;;;;;;;-140.72;0.00;52997.63;5074346;28;19928;-72
2023/03/14 01:24:22;;;;;;;;;;;;;;;-140.72;0.00;52950.94;5072966;28;19920;-72
2023/03/14 01:26:47;;;;;;;;;;;;;;;-140.72;0.00;52944.84;5074876;28;19978;-72
2023/03/14 01:29:13;;;;;;;;;;;;;;;-140.72;0.00;52963.13;5063788;28;19917;-72
2023/03/14 01:31:38;;;;;;;;;;;;;;;-140.72;0.00;52987.47;5068116;28;19920;-72
2023/03/14 01:34:03;;;;;;;;;;;;;;;-140.72;0.00;52959.06;5067794;28;19917;-72
2023/03/14 01:36:29;;;;;;;;;;;;;;;-140.72;0.00;53003.69;5066257;28;19917;-72
2023/03/14 01:38:54;;;;;;;;;;;;;;;-140.72;0.00;53009.78;5107083;27;19988;-72
2023/03/14 01:41:23;;;;;;;;;;;;;;;-140.72;0.00;52952.97;5066223;28;19939;-75
2023/03/14 01:43:48;;;;;;;;;;;;;;;-140.72;0.00;52975.28;5073372;28;19927;-72
2023/03/14 01:46:13;;;;;;;;;;;;;;;-140.72;0.00;52957.03;5067514;28;19921;-75
2023/03/14 01:48:42;;;;;;;;;;;;;;;-140.72;0.00;52950.94;5071542;28;20264;-72
2023/03/14 01:51:09;;;;;;;;;;;;;;;-140.72;0.00;52959.06;5064037;28;19920;-71
2023/03/14 01:53:35;;;;;;;;;;;;;;;-140.72;0.00;52942.81;5061550;28;19917;-72
2023/03/14 01:56:01;;;;;;;;;;;;;;;-140.72;0.00;53003.69;5073979;28;19921;-71
2023/03/14 01:58:27;;;;;;;;;;;;;;;-140.72;0.00;52995.59;5061174;28;20016;-72
2023/03/14 02:00:53;;;;;;;;;;;;;;;-140.72;0.00;52979.34;5063121;28;20299;-73
2023/03/14 02:03:21;;;;;;;;;;;;;;;-140.72;0.00;52973.25;5072243;28;20007;-72
2023/03/14 02:05:46;;;;;;;;;;;;;;;-140.72;0.00;52979.34;5070092;28;19931;-72
2023/03/14 02:08:17;;;;;;;;;;;;;;;-140.72;0.00;52963.13;5069747;28;20324;-72
2023/03/14 02:10:45;;;;;;;;;;;;;;;-140.72;0.00;52995.59;5071010;28;19920;-72
2023/03/14 02:13:11;;;;;;;;;;;;;;;-140.72;0.00;52985.44;5072410;28;19921;-72
2023/03/14 02:15:37;;;;;;;;;;;;;;;-140.72;0.00;53005.72;5063048;28;19991;-72
2023/03/14 02:18:03;;;;;;;;;;;;;;;-140.72;0.00;53009.78;5073540;28;19927;-72
2023/03/14 02:20:28;;;;;;;;;;;;;;;-140.72;0.00;53013.84;5075899;28;19929;-72
2023/03/14 02:22:54;;;;;;;;;;;;;;;-140.72;0.00;52965.16;5070139;28;19921;-72
2023/03/14 02:25:29;;;;;;;;;;;;;;;-140.72;0.00;52969.19;5071471;28;19916;-72
2023/03/14 02:27:55;;;;;;;;;;;;;;;-140.72;0.00;52981.38;5064260;28;20457;-74
2023/03/14 02:30:22;;;;;;;;;;;;;;;-140.72;0.00;52991.53;5071250;28;19924;-72
2023/03/14 02:32:50;;;;;;;;;;;;;;;-140.72;0.00;53024.00;5082934;28;19924;-72
2023/03/14 02:35:17;;;;;;;;;;;;;;;-140.72;0.00;52977.31;5074195;28;19924;-72
2023/03/14 02:37:53;;;;;;;;;;;;;;;-140.72;0.00;52967.16;5074052;28;19939;-72
2023/03/14 02:40:18;;;;;;;;;;;;;;;-140.72;0.00;52995.59;5073736;28;19970;-73
2023/03/14 02:42:43;;;;;;;;;;;;;;;-140.72;0.00;53011.81;5074389;28;19924;-72
2023/03/14 02:45:09;;;;;;;;;;;;;;;-140.72;0.00;52948.91;5079598;28;19931;-72
2023/03/14 02:47:37;;;;;;;;;;;;;;;-140.72;0.00;52963.13;5068586;28;19924;-72
2023/03/14 02:50:08;;;;;;;;;;;;;;;-140.72;0.00;52973.25;5057041;28;19925;-72
2023/03/14 02:52:33;;;;;;;;;;;;;;;-140.72;0.00;52977.31;5069258;28;19916;-72
2023/03/14 02:54:58;;;;;;;;;;;;;;;-140.72;0.00;53013.84;5072316;28;19920;-71
2023/03/14 02:57:23;;;;;;;;;;;;;;;-140.72;0.00;52957.03;5065418;28;19994;-71
2023/03/14 02:59:49;;;;;;;;;;;;;;;-140.72;0.00;52987.47;5064182;28;19924;-71
2023/03/14 03:02:14;;;;;;;;;;;;;;;-140.72;0.00;52991.53;5067625;28;20351;-71
2023/03/14 03:04:39;;;;;;;;;;;;;;;-140.72;0.00;52979.34;5074006;28;20221;-71
2023/03/14 03:07:04;;;;;;;;;;;;;;;-140.72;0.00;53005.72;5076005;28;20396;-69
2023/03/14 03:09:29;;;;;;;;;;;;;;;-140.72;0.00;53003.69;5064756;28;19917;-71
2023/03/14 03:11:55;;;;;;;;;;;;;;;-140.72;0.00;53003.69;5068692;28;19929;-72
2023/03/14 03:14:20;;;;;;;;;;;;;;;-140.72;0.00;53003.69;5072325;28;19928;-72
2023/03/14 03:16:45;;;;;;;;;;;;;;;-140.72;0.00;53005.72;5068260;28;19918;-71
2023/03/14 03:19:13;;;;;;;;;;;;;;;-140.72;0.00;52969.19;5068255;28;20264;-72
2023/03/14 03:21:38;;;;;;;;;;;;;;;-140.72;0.00;52967.16;5087866;28;20039;-72
2023/03/14 03:24:03;;;;;;;;;;;;;;;-140.72;0.00;52991.53;5074893;28;19924;-72
2023/03/14 03:26:28;;;;;;;;;;;;;;;-140.72;0.00;52991.53;5074045;28;19920;-72
2023/03/14 03:28:54;;;;;;;;;;;;;;;-140.72;0.00;52991.53;5076516;28;20086;-72
2023/03/14 03:31:19;;;;;;;;;;;;;;;-140.72;0.00;52979.34;5071242;28;20003;-72
2023/03/14 03:33:44;;;;;;;;;;;;;;;-140.72;0.00;52957.03;5074049;28;20350;-71
2023/03/14 03:36:09;;;;;;;;;;;;;;;-140.72;0.00;52946.88;5066718;28;20474;-71
2023/03/14 03:38:35;;;;;;;;;;;;;;;-140.72;0.00;52979.34;5070737;28;19990;-71
2023/03/14 03:41:09;;;;;;;;;;;;;;;-140.72;0.00;52993.56;5075627;28;19917;-72
2023/03/14 03:43:35;;;;;;;;;;;;;;;-140.72;0.00;52969.19;5070593;28;20374;-72
2023/03/14 03:46:04;;;;;;;;;;;;;;;-140.72;0.00;52987.47;5059031;28;19958;-72
2023/03/14 03:48:30;;;;;;;;;;;;;;;-140.72;0.00;53011.81;5061003;28;19923;-69
2023/03/14 03:50:55;;;;;;;;;;;;;;;-140.72;0.00;52997.63;5075694;28;19916;-72
2023/03/14 03:53:20;;;;;;;;;;;;;;;-140.72;0.00;53005.72;5075847;28;19916;-72
2023/03/14 03:55:45;;;;;;;;;;;;;;;-140.72;0.00;53011.81;5073955;28;20048;-72
2023/03/14 03:58:11;;;;;;;;;;;;;;;-140.72;0.00;52987.47;5075368;28;19992;-72
2023/03/14 04:03:28;;;;;;;;;;;;;;;-140.72;0.00;52963.13;5066640;28;19934;-72
2023/03/14 04:08:46;;;;;;;;;;;;;;;-140.72;0.00;52975.28;5070100;28;20276;-72
2023/03/14 04:11:12;;;;;;;;;;;;;;;-140.72;0.00;52983.41;5069526;28;19920;-72
2023/03/14 04:13:37;;;;;;;;;;;;;;;-140.72;0.00;52967.16;5069182;28;19924;-72
2023/03/14 04:16:02;;;;;;;;;;;;;;;-140.72;0.00;52979.34;5066400;28;19921;-72
2023/03/14 04:18:30;;;;;;;;;;;;;;;-140.72;0.00;53013.84;5065455;28;20472;-72
2023/03/14 04:20:55;;;;;;;;;;;;;;;-140.72;0.00;53003.69;5083364;28;20026;-71
2023/03/14 04:23:23;;;;;;;;;;;;;;;-140.72;0.00;53019.94;5078553;28;19927;-71
2023/03/14 04:25:49;;;;;;;;;;;;;;;-140.72;0.00;52989.50;5068782;28;20408;-71
2023/03/14 04:28:14;;;;;;;;;;;;;;;-140.72;0.00;53011.81;5073090;28;19996;-71
2023/03/14 04:30:39;;;;;;;;;;;;;;;-140.72;0.00;53046.31;5067766;28;19923;-71
2023/03/14 04:33:05;;;;;;;;;;;;;;;-140.72;5.18;53015.88;5064360;28;19927;-71
2023/03/14 04:35:30;;;;;;;;;;;;;;;-140.72;21.17;53007.75;5107198;28;20527;-71
2023/03/14 04:37:56;;;;;;;;;;;;;;;-140.72;35.07;53044.28;5075151;28;19965;-71
2023/03/14 04:40:21;;;;;;;;;;;;;;;-140.72;19.28;52975.28;5059282;28;19924;-71
2023/03/14 04:42:46;;;;;;;;;;;;;;;-140.72;32.60;53011.81;5070502;28;19943;-71
2023/03/14 04:45:11;;;;;;;;;;;;;;;-140.72;43.03;53005.72;5068485;28;19916;-71
2023/03/14 04:47:37;;;;;;;;;;;;;;;-140.72;55.22;53017.91;5083827;28;19981;-71
2023/03/14 04:50:02;;;;;;;;;;;;;;;-140.72;68.29;53028.06;5068895;28;19924;-71
2023/03/14 04:52:27;;;;;;;;;;;;;;;-140.72;78.92;53019.94;5067657;28;19990;-70
2023/03/14 04:54:52;;;;;;;;;;;;;;;-140.72;93.44;53015.88;5064519;28;20011;-71
2023/03/14 04:57:18;;;;;;;;;;;;;;;-140.72;100.00;53040.22;5071094;28;20351;-71
2023/03/14 04:59:43;;;;;;;;;;;;;;;-140.72;100.00;53024.00;5074254;28;19990;-71
2023/03/14 05:02:08;;;;;;;;;;;;;;;-140.72;100.00;52979.34;5085629;28;19939;-70
2023/03/14 05:04:33;;;;;;;;;;;;;;;-140.72;100.00;52987.47;5074067;28;20243;-71
2023/03/14 05:06:59;;;;;;;;;;;;;;;-140.72;100.00;53044.28;5074022;28;19963;-72
2023/03/14 05:09:24;;;;;;;;;;;;;;;-140.72;100.00;53024.00;5089277;28;19917;-70
2023/03/14 05:11:49;;;;;;;;;;;;;;;-140.72;100.00;52987.47;5068873;28;19967;-70
2023/03/14 05:14:14;;;;;;;;;;;;;;;-140.72;100.00;53024.00;5074525;28;19917;-71
2023/03/14 05:16:40;;;;;;;;;;;;;;;-140.72;100.00;53044.28;5064191;28;19920;-70
2023/03/14 05:19:05;;;;;;;;;;;;;;;-140.72;100.00;53011.81;5067494;28;19917;-71
2023/03/14 05:21:30;;;;;;;;;;;;;;;-140.72;100.00;53024.00;5071402;28;19928;-71
2023/03/14 05:23:55;;;;;;;;;;;;;;;-140.72;100.00;53009.78;5072648;28;19923;-71
2023/03/14 05:26:21;;;;;;;;;;;;;;;-140.72;100.00;53028.06;5056131;28;19916;-71
2023/03/14 05:28:46;;;;;;;;;;;;;;;-140.72;100.00;53048.34;5062740;28;19920;-71
2023/03/14 05:31:11;;;;;;;;;;;;;;;-140.72;100.00;53019.94;5066702;28;20303;-71
2023/03/14 05:33:36;;;;;;;;;;;;;;;-140.72;100.00;53013.84;5065138;28;20379;-71
2023/03/14 05:36:02;;;;;;;;;;;;;;;-140.72;100.00;53052.41;5070638;28;19916;-70
2023/03/14 05:38:27;;;;;;;;;;;;;;;-140.72;100.00;53052.41;5105470;28;19924;-70
2023/03/14 05:40:52;;;;;;;;;;;;;;;-140.72;100.00;52981.38;5070324;28;19962;-71
2023/03/14 05:43:17;;;;;;;;;;;;;;;-140.72;100.00;53028.06;5061179;28;20452;-70
2023/03/14 05:45:43;;;;;;;;;;;;;;;-140.72;100.00;53021.97;5072374;28;19928;-73
2023/03/14 05:48:08;;;;;;;;;;;;;;;-140.72;100.00;53050.38;5070084;28;19917;-70
2023/03/14 05:50:33;;;;;;;;;;;;;;;-140.72;100.00;53040.22;5062062;28;19917;-72
2023/03/14 05:52:59;;;;;;;;;;;;;;;-140.72;100.00;53072.69;5073331;28;19965;-71
2023/03/14 05:55:24;;;;;;;;;;;;;;;-140.72;100.00;53046.31;5065126;28;19924;-70
2023/03/14 05:57:49;;;;;;;;;;;;;;;-140.72;100.00;53026.03;5056660;28;19960;-70
2023/03/14 06:00:15;;;;;;;;;;;;;;;-140.72;100.00;53015.88;5072565;28;19924;-72
2023/03/14 06:02:40;;;;;;;;;;;;;;;-140.72;100.00;53019.94;5072640;28;20032;-70
2023/03/14 06:05:06;;;;;;;;;;;;;;;-140.72;100.00;53044.28;5072320;28;19925;-70
2023/03/14 06:07:31;;;;;;;;;;;;;;;-140.72;100.00;53034.16;5069867;28;19920;-79
2023/03/14 06:09:56;;;;;;;;;;;;;;;-140.72;100.00;53001.66;5077718;28;19924;-71
2023/03/14 06:12:21;;;;;;;;;;;;;;;-140.72;100.00;53060.53;5073254;28;20011;-71
2023/03/14 06:14:47;;;;;;;;;;;;;;;-140.72;100.00;53064.59;5071885;28;19921;-70
2023/03/14 06:17:12;;;;;;;;;;;;;;;-140.72;100.00;53074.72;5070867;28;19939;-70
2023/03/14 06:19:37;;;;;;;;;;;;;;;-140.72;100.00;53040.22;5064686;28;20259;-70
2023/03/14 06:22:02;;;;;;;;;;;;;;;-140.72;100.00;53034.16;5065227;28;20372;-70
2023/03/14 06:24:28;;;;;;;;;;;;;;;-140.72;100.00;53038.19;5072377;28;19917;-70
2023/03/14 06:26:53;;;;;;;;;;;;;;;-140.72;100.00;53064.59;5067912;28;20019;-70
2023/03/14 06:29:18;;;;;;;;;;;;;;;-140.72;100.00;53060.53;5073080;28;19921;-71
2023/03/14 06:31:43;;;;;;;;;;;;;;;-140.72;100.00;53040.22;5066454;28;19921;-72
2023/03/14 06:34:09;;;;;;;;;;;;;;;-140.72;100.00;53058.50;5065671;28;20305;-71
2023/03/14 06:36:34;;;;;;;;;;;;;;;-140.72;100.00;53084.88;5082082;28;20436;-71
2023/03/14 06:38:59;;;;;;;;;;;;;;;-140.72;100.00;53056.47;5075775;28;19920;-71
2023/03/14 06:41:26;;;;;;;;;;;;;;;-140.72;100.00;53050.38;5070399;28;19916;-70
2023/03/14 06:43:51;;;;;;;;;;;;;;;-140.72;100.00;53082.84;5060131;28;19917;-70
2023/03/14 06:46:17;;;;;;;;;;;;;;;-140.72;100.00;53066.63;5069256;28;20509;-71
2023/03/14 06:48:42;;;;;;;;;;;;;;;-140.72;100.00;53090.97;5067080;28;19916;-73
2023/03/14 06:51:08;;;;;;;;;;;;;;;-140.72;100.00;53052.41;5072501;28;20401;-72
2023/03/14 06:53:33;;;;;;;;;;;;;;;-140.72;100.00;53082.84;5097385;28;19952;-73
2023/03/14 06:55:58;;;;;;;;;;;;;;;-140.72;100.00;53058.50;5080059;28;19917;-71
2023/03/14 06:58:23;;;;;;;;;;;;;;;-140.72;100.00;53028.06;5074310;28;20372;-71
2023/03/14 07:00:49;;;;;;;;;;;;;;;-140.72;100.00;53056.47;5058208;28;19944;-71
2023/03/14 07:03:14;;;;;;;;;;;;;;;-140.72;100.00;53056.47;5067499;28;19943;-73
2023/03/14 07:05:40;;;;;;;;;;;;;;;-140.72;100.00;53026.03;5060373;28;20026;-75
2023/03/14 07:08:05;;;;;;;;;;;;;;;-140.72;100.00;53032.13;5100372;28;19923;-73
2023/03/14 07:10:31;;;;;;;;;;;;;;;-140.72;100.00;53072.69;5060635;28;19917;-74
2023/03/14 07:12:56;;;;;;;;;;;;;;;-140.72;100.00;53044.28;5072411;28;19931;-73
2023/03/14 07:15:21;;;;;;;;;;;;;;;-140.72;100.00;53060.53;5102932;28;20294;-70
2023/03/14 07:17:47;;;;;;;;;;;;;;;-140.72;100.00;53040.22;5063231;28;19956;-71
2023/03/14 07:20:13;;;;;;;;;;;;;;;-140.72;100.00;53066.63;5060906;28;19973;-70
2023/03/14 07:22:38;;;;;;;;;;;;;;;-140.72;100.00;53044.28;5064607;28;19921;-70
2023/03/14 07:25:03;;;;;;;;;;;;;;;-140.72;100.00;53064.59;5064875;28;20414;-71
2023/03/14 07:27:29;;;;;;;;;;;;;;;-140.72;100.00;53013.84;5094865;28;20220;-70
2023/03/14 07:29:54;;;;;;;;;;;;;;;-140.72;100.00;53054.44;5064444;28;19923;-70
2023/03/14 07:32:19;;;;;;;;;;;;;;;-140.72;100.00;53032.13;5060689;28;19924;-70
2023/03/14 07:34:44;;;;;;;;;;;;;;;-140.72;100.00;53109.22;5071594;28;20011;-70
2023/03/14 07:37:10;;;;;;;;;;;;;;;-140.72;100.00;53060.53;5070841;28;20015;-70
2023/03/14 07:39:35;;;;;;;;;;;;;;;-140.72;100.00;53034.16;5063974;28;19916;-71
2023/03/14 07:42:00;;;;;;;;;;;;;;;-140.72;100.00;53068.66;5064845;28;20177;-70
2023/03/14 07:44:26;;;;;;;;;;;;;;;-140.72;100.00;53070.69;5070581;28;19916;-71
2023/03/14 07:46:51;;;;;;;;;;;;;;;-140.72;100.00;53028.06;5073045;28;19971;-70
2023/03/14 07:49:16;;;;;;;;;;;;;;;-140.72;100.00;53054.44;5065932;28;20334;-70
2023/03/14 07:51:43;;;;;;;;;;;;;;;-140.72;100.00;53034.16;5067368;28;20372;-70
2023/03/14 07:54:09;;;;;;;;;;;;;;;-140.72;100.00;53052.41;5062888;28;19916;-70
2023/03/14 07:56:34;;;;;;;;;;;;;;;-140.72;100.00;53028.06;5070063;28;19971;-71
2023/03/14 07:58:59;;;;;;;;;;;;;;;-140.72;100.00;53062.56;5075195;28;20025;-70
2023/03/14 08:01:24;;;;;;;;;;;;;;;-140.72;100.00;53074.72;5075294;28;19959;-70
2023/03/14 08:03:49;;;;;;;;;;;;;;;-140.72;100.00;53052.41;5065622;28;19924;-70
2023/03/14 08:06:15;;;;;;;;;;;;;;;-140.72;100.00;53068.66;5068080;28;19916;-70
2023/03/14 08:08:40;;;;;;;;;;;;;;;-140.72;100.00;53080.81;5071832;28;19921;-70
2023/03/14 08:11:08;;;;;;;;;;;;;;;-140.72;100.00;53084.88;5075277;28;19956;-70
2023/03/14 08:13:33;;;;;;;;;;;;;;;-140.72;100.00;53095.03;5073452;28;19924;-71
2023/03/14 08:15:59;;;;;;;;;;;;;;;-140.72;100.00;53054.44;5074856;28;19917;-70
2023/03/14 08:18:24;;;;;;;;;;;;;;;-140.72;100.00;53066.63;5073110;28;19992;-71
2023/03/14 08:20:49;;;;;;;;;;;;;;;-140.72;100.00;53088.94;5073722;28;19916;-71
2023/03/14 08:23:14;;;;;;;;;;;;;;;-140.72;100.00;53074.72;5072578;28;19920;-70
2023/03/14 08:25:40;;;;;;;;;;;;;;;-140.72;100.00;53064.59;5070023;28;19924;-71
2023/03/14 08:28:05;;;;;;;;;;;;;;;-140.72;100.00;53060.53;5072783;28;19916;-71
2023/03/14 08:30:30;;;;;;;;;;;;;;;-140.72;100.00;53084.88;5072840;28;19961;-70
2023/03/14 08:32:57;;;;;;;;;;;;;;;-140.72;100.00;53060.53;5071627;28;20016;-70
2023/03/14 08:35:22;;;;;;;;;;;;;;;-140.72;100.00;53080.81;5074709;28;19917;-71
2023/03/14 08:37:47;;;;;;;;;;;;;;;-140.72;100.00;53072.69;5073814;28;19917;-71
2023/03/14 08:40:13;;;;;;;;;;;;;;;-140.72;100.00;53064.59;5074449;28;20308;-70
2023/03/14 08:42:39;;;;;;;;;;;;;;;-140.72;100.00;53078.78;5071097;28;20010;-70
2023/03/14 08:45:05;;;;;;;;;;;;;;;-140.72;100.00;53076.75;5073673;28;20012;-70
2023/03/14 08:47:30;;;;;;;;;;;;;;;-140.72;100.00;53054.44;5074015;28;20014;-70
2023/03/14 08:49:55;;;;;;;;;;;;;;;-140.72;100.00;53058.50;5072375;28;19917;-71
2023/03/14 08:52:21;;;;;;;;;;;;;;;-140.72;100.00;53062.56;5106469;28;19960;-70
2023/03/14 08:54:46;;;;;;;;;;;;;;;-140.72;100.00;53070.69;5067291;28;19924;-70
2023/03/14 08:57:11;;;;;;;;;;;;;;;-140.72;100.00;53072.69;5070133;28;20037;-70
2023/03/14 08:59:37;;;;;;;;;;;;;;;-140.72;100.00;53052.41;5073188;28;19920;-70
2023/03/14 09:02:05;;;;;;;;;;;;;;;-140.72;100.00;53009.78;5063902;28;20313;-70
2023/03/14 09:04:30;;;;;;;;;;;;;;;-140.72;100.00;52995.59;5071483;28;19921;-71
2023/03/14 09:06:57;;;;;;;;;;;;;;;-140.72;100.00;53036.16;5063747;28;19928;-71
2023/03/14 09:09:23;;;;;;;;;;;;;;;-140.72;100.00;53015.88;5072367;28;20275;-71
2023/03/14 09:11:48;;;;;;;;;;;;;;;-140.72;100.00;52977.31;5073302;28;19917;-71
2023/03/14 09:14:13;;;;;;;;;;;;;;;-140.72;100.00;53038.19;5073841;28;19920;-71
2023/03/14 09:16:39;;;;;;;;;;;;;;;-140.72;100.00;52959.06;5072962;28;19924;-71
2023/03/14 09:19:05;;;;;;;;;;;;;;;-140.72;100.00;53011.81;5072028;28;20093;-71
2023/03/14 09:21:30;;;;;;;;;;;;;;;-140.72;100.00;53026.03;5071483;28;20007;-71
2023/03/14 09:23:55;;;;;;;;;;;;;;;-140.72;100.00;53032.13;5072227;28;20010;-71
2023/03/14 09:26:21;;;;;;;;;;;;;;;-140.72;100.00;53044.28;5073737;28;19916;-71
2023/03/14 09:28:46;;;;;;;;;;;;;;;-140.72;100.00;53009.78;5077281;28;20346;-70
2023/03/14 09:31:12;;;;;;;;;;;;;;;-140.72;100.00;52999.66;5075057;28;20013;-70
2023/03/14 09:33:37;;;;;;;;;;;;;;;-140.72;100.00;53032.13;5073381;28;19920;-70
2023/03/14 09:36:03;;;;;;;;;;;;;;;-140.72;100.00;53007.75;5072548;28;19939;-71
2023/03/14 09:38:29;;;;;;;;;;;;;;;-140.72;100.00;53042.25;5070621;28;19920;-71
2023/03/14 09:40:55;;;;;;;;;;;;;;;-140.72;100.00;53060.53;5069732;28;20441;-70
2023/03/14 09:43:21;;;;;;;;;;;;;;;-140.72;100.00;53052.41;5072459;28;19917;-70
2023/03/14 09:45:48;;;;;;;;;;;;;;;-140.72;100.00;53105.19;5088044;28;19920;-70
2023/03/14 09:48:19;;;;;;;;;;;;;;;-140.72;100.00;53076.75;5068069;28;19917;-70
2023/03/14 09:50:47;;;;;;;;;;;;;;;-140.72;100.00;53048.34;5061761;28;20058;-70
2023/03/14 09:53:15;;;;;;;;;;;;;;;-140.72;100.00;53009.78;5072589;28;20259;-70
2023/03/14 09:55:41;;;;;;;;;;;;;;;-140.72;100.00;53040.22;5064633;28;19924;-70
2023/03/14 09:58:11;;;;;;;;;;;;;;;-140.72;100.00;53009.78;5066813;28;19921;-71
2023/03/14 10:00:36;;;;;;;;;;;;;;;-140.72;100.00;52995.59;5061190;28;20374;-71
2023/03/14 10:03:13;;;;;;;;;;;;;;;-140.72;100.00;52995.59;5060081;28;19921;-71
2023/03/14 10:05:42;;;;;;;;;;;;;;;-140.72;100.00;53015.88;5069749;28;19920;-71
2023/03/14 10:08:11;;;;;;;;;;;;;;;-140.72;100.00;53007.75;5065687;28;19924;-70
2023/03/14 10:10:36;;;;;;;;;;;;;;;-140.72;100.00;53017.91;5071143;28;19916;-70
2023/03/14 10:13:12;;;;;;;;;;;;;;;-140.72;100.00;52991.53;5071003;28;19999;-70
2023/03/14 10:15:37;;;;;;;;;;;;;;;-140.72;100.00;52987.47;5072263;28;19996;-70
2023/03/14 10:18:04;;;;;;;;;;;;;;;-140.72;100.00;53011.81;5070680;28;20041;-70
2023/03/14 10:20:32;;;;;;;;;;;;;;;-140.72;100.00;53009.78;5070770;28;19942;-70
2023/03/14 10:22:58;;;;;;;;;;;;;;;-140.72;100.00;52987.47;5070991;28;20359;-70
2023/03/14 10:25:26;;;;;;;;;;;;;;;-140.72;100.00;52971.22;5072042;28;19970;-70
2023/03/14 10:27:51;;;;;;;;;;;;;;;-140.72;100.00;52967.16;5085330;28;19987;-70
2023/03/14 10:30:28;;;;;;;;;;;;;;;-140.72;100.00;52948.91;5070376;28;19928;-70
2023/03/14 10:32:54;;;;;;;;;;;;;;;-140.72;85.22;52987.47;5069075;28;20000;-70
2023/03/14 10:35:21;;;;;;;;;;;;;;;-140.72;56.82;52971.22;5072379;28;19944;-70
2023/03/14 10:37:49;;;;;;;;;;;;;;;-140.72;45.49;52993.56;5071647;28;19916;-70
2023/03/14 10:40:14;;;;;;;;;;;;;;;-140.72;48.70;52991.53;5068928;28;20061;-70
2023/03/14 10:42:41;;;;;;;;;;;;;;;-140.72;26.59;53007.75;5060858;28;19978;-70
2023/03/14 10:45:25;;;;;;;;;;;;;;;-140.72;24.33;53028.06;5071748;28;19916;-70
2023/03/14 10:47:51;;;;;;;;;;;;;;;-140.72;23.45;52999.66;5071638;28;19924;-70
2023/03/14 10:50:25;;;;;;;;;;;;;;;-140.72;15.54;53011.81;5063511;28;19928;-70
2023/03/14 10:52:51;;;;;;;;;;;;;;;-140.72;0.00;53046.31;5068121;28;19984;-70
2023/03/14 10:55:17;;;;;;;;;;;;;;;-140.72;0.00;52967.16;5053121;28;19960;-70
2023/03/14 10:57:42;;;;;;;;;;;;;;;-140.72;0.00;52977.31;5055469;28;20030;-70
2023/03/14 11:00:17;;;;;;;;;;;;;;;-140.72;0.00;52979.34;5054169;28;19917;-70
2023/03/14 11:02:45;;;;;;;;;;;;;;;-140.72;0.00;53007.75;5070280;28;19920;-70
2023/03/14 11:05:34;;;;;;;;;;;;;;;-140.72;0.00;52959.06;5104359;28;19984;-70
2023/03/14 11:08:08;;;;;;;;;;;;;;;-140.72;0.00;52912.38;5054204;28;19917;-70
2023/03/14 11:10:37;;;;;;;;;;;;;;;-140.72;0.00;52833.22;5067226;28;20371;-70
2023/03/14 11:13:08;;;;;;;;;;;;;;;-140.72;0.00;52782.50;5072278;28;19916;-70
2023/03/14 11:15:43;;;;;;;;;;;;;;;-140.72;0.00;52833.22;5075912;28;19917;-70
2023/03/14 11:18:23;;;;;;;;;;;;;;;-140.72;0.00;52859.63;5070072;28;19924;-70
2023/03/14 11:21:11;;;;;;;;;;;;;;;-140.72;0.00;52910.34;5063480;28;19916;-70
2023/03/14 11:23:55;;;;;;;;;;;;;;;-140.72;0.00;52774.38;5063598;28;19917;-70
2023/03/14 11:26:32;;;;;;;;;;;;;;;-140.72;0.00;52768.28;5075622;28;19928;-70
2023/03/14 11:29:02;;;;;;;;;;;;;;;-140.72;0.00;52733.78;5075201;28;19920;-70
2023/03/14 11:31:28;;;;;;;;;;;;;;;-140.72;0.00;52683.06;5073651;28;20383;-70
2023/03/14 11:34:15;;;;;;;;;;;;;;;-140.72;0.00;52683.06;5090642;28;20011;-70
2023/03/14 11:36:51;;;;;;;;;;;;;;;-140.72;0.00;52666.84;5075518;28;20009;-71
2023/03/14 11:39:17;;;;;;;;;;;;;;;-140.72;0.00;52630.31;5063372;28;19978;-70
2023/03/14 11:41:46;;;;;;;;;;;;;;;-140.72;0.00;52735.81;5067901;28;20015;-70
2023/03/14 11:44:25;;;;;;;;;;;;;;;-140.72;0.00;52640.44;5075449;28;20408;-70
2023/03/14 11:47:03;;;;;;;;;;;;;;;-140.72;0.00;52642.47;5076984;28;19916;-70
2023/03/14 11:49:38;;;;;;;;;;;;;;;-140.72;0.00;52634.38;5063400;28;20316;-71
2023/03/14 11:52:08;;;;;;;;;;;;;;;-140.72;0.00;52587.69;5069663;28;19928;-71
2023/03/14 11:54:39;;;;;;;;;;;;;;;-140.72;0.00;52500.44;5070757;28;20287;-71
2023/03/14 11:57:10;;;;;;;;;;;;;;;-140.72;0.00;52589.72;5061253;28;19924;-71
2023/03/14 11:59:45;;;;;;;;;;;;;;;-140.72;0.00;52557.25;5090334;28;19924;-71
2023/03/14 12:02:17;;;;;;;;;;;;;;;-140.72;0.00;52557.25;5075132;28;19916;-71
2023/03/14 12:04:45;;;;;;;;;;;;;;;-140.72;0.00;52581.59;5066369;28;19921;-71
2023/03/14 12:07:19;;;;;;;;;;;;;;;-140.72;0.00;52581.59;5071169;28;19920;-71
2023/03/14 12:09:45;;;;;;;;;;;;;;;-140.72;0.00;52648.56;5068260;28;19916;-71
2023/03/14 12:12:13;;;;;;;;;;;;;;;-140.72;0.00;52634.38;5073183;28;19943;-71
2023/03/14 12:14:44;;;;;;;;;;;;;;;-140.72;0.00;52628.28;5071342;28;19917;-70
2023/03/14 12:17:12;;;;;;;;;;;;;;;-140.72;0.00;52658.72;5072869;28;19916;-70
2023/03/14 12:19:39;;;;;;;;;;;;;;;-140.72;0.00;52652.63;5073265;28;19924;-71
2023/03/14 12:22:07;;;;;;;;;;;;;;;-140.72;0.00;52731.75;5074039;28;19916;-71
2023/03/14 12:24:35;;;;;;;;;;;;;;;-140.72;0.00;52664.81;5103031;28;20445;-70
2023/03/14 12:27:02;;;;;;;;;;;;;;;-140.72;0.00;52689.16;5065383;28;19920;-71
2023/03/14 12:29:27;;;;;;;;;;;;;;;-140.72;0.00;52727.72;5073838;28;19974;-71
2023/03/14 12:32:11;;;;;;;;;;;;;;;-140.72;0.00;52750.03;5071343;28;19916;-71